sensor_id;sensor_type;location;lat;lon;timestamp;P1;durP1;ratioP1;P2;durP2;ratioP2
315;SDS011;14128;48.686;9.738;2022-07-29T00:02:08;13.53;;;12.83;;
315;SDS011;14128;48.686;9.738;2022-07-29T00:04:36;14.90;;;13.07;;
315;SDS011;14128;48.686;9.738;2022-07-29T00:07:03;13.53;;;12.83;;
315;SDS011;14128;48.686;9.738;2022-07-29T00:09:31;14.23;;;12.13;;
315;SDS011;14128;48.686;9.738;2022-07-29T00:11:59;12.40;;;11.80;;
315;SDS011;14128;48.686;9.738;2022-07-29T00:14:28;13.37;;;12.67;;
315;SDS011;14128;48.686;9.738;2022-07-29T00:16:55;12.40;;;11.27;;
315;SDS011;14128;48.686;9.738;2022-07-29T00:19:23;16.80;;;13.10;;
315;SDS011;14128;48.686;9.738;2022-07-29T00:21:50;12.47;;;11.87;;
315;SDS011;14128;48.686;9.738;2022-07-29T00:24:17;13.13;;;11.93;;
315;SDS011;14128;48.686;9.738;2022-07-29T00:26:44;12.97;;;12.27;;
315;SDS011;14128;48.686;9.738;2022-07-29T00:29:11;12.53;;;11.90;;
315;SDS011;14128;48.686;9.738;2022-07-29T00:31:40;12.90;;;12.20;;
315;SDS011;14128;48.686;9.738;2022-07-29T00:34:07;12.57;;;11.93;;
315;SDS011;14128;48.686;9.738;2022-07-29T00:36:54;11.83;;;11.23;;
315;SDS011;14128;48.686;9.738;2022-07-29T00:39:20;11.63;;;11.00;;
315;SDS011;14128;48.686;9.738;2022-07-29T00:41:48;10.40;;;9.87;;
315;SDS011;14128;48.686;9.738;2022-07-29T00:44:15;10.80;;;10.20;;
315;SDS011;14128;48.686;9.738;2022-07-29T00:46:43;12.90;;;11.17;;
315;SDS011;14128;48.686;9.738;2022-07-29T00:49:11;11.00;;;10.40;;
315;SDS011;14128;48.686;9.738;2022-07-29T00:51:38;11.27;;;10.67;;
315;SDS011;14128;48.686;9.738;2022-07-29T00:54:06;10.90;;;10.30;;
315;SDS011;14128;48.686;9.738;2022-07-29T00:56:34;10.80;;;10.20;;
315;SDS011;14128;48.686;9.738;2022-07-29T00:59:01;10.00;;;9.50;;
315;SDS011;14128;48.686;9.738;2022-07-29T01:01:28;9.80;;;9.30;;
315;SDS011;14128;48.686;9.738;2022-07-29T01:03:57;9.73;;;9.23;;
315;SDS011;14128;48.686;9.738;2022-07-29T01:06:24;10.57;;;10.00;;
315;SDS011;14128;48.686;9.738;2022-07-29T01:08:51;12.53;;;8.00;;
315;SDS011;14128;48.686;9.738;2022-07-29T01:11:18;8.87;;;8.00;;
315;SDS011;14128;48.686;9.738;2022-07-29T01:13:46;9.63;;;8.03;;
315;SDS011;14128;48.686;9.738;2022-07-29T01:16:15;7.87;;;7.37;;
315;SDS011;14128;48.686;9.738;2022-07-29T01:18:46;8.70;;;7.63;;
315;SDS011;14128;48.686;9.738;2022-07-29T01:26:42;6.73;;;6.33;;
315;SDS011;14128;48.686;9.738;2022-07-29T01:29:18;7.13;;;6.73;;
315;SDS011;14128;48.686;9.738;2022-07-29T01:31:47;6.80;;;6.40;;
315;SDS011;14128;48.686;9.738;2022-07-29T01:34:18;5.97;;;5.67;;
315;SDS011;14128;48.686;9.738;2022-07-29T01:36:48;6.17;;;5.87;;
315;SDS011;14128;48.686;9.738;2022-07-29T01:39:18;7.50;;;7.10;;
315;SDS011;14128;48.686;9.738;2022-07-29T01:41:47;7.27;;;6.87;;
315;SDS011;14128;48.686;9.738;2022-07-29T01:44:18;6.80;;;6.40;;
315;SDS011;14128;48.686;9.738;2022-07-29T01:46:49;6.80;;;6.40;;
315;SDS011;14128;48.686;9.738;2022-07-29T01:49:20;6.70;;;6.30;;
315;SDS011;14128;48.686;9.738;2022-07-29T01:51:49;6.50;;;6.10;;
315;SDS011;14128;48.686;9.738;2022-07-29T01:54:18;7.50;;;7.10;;
315;SDS011;14128;48.686;9.738;2022-07-29T01:56:47;7.60;;;7.20;;
315;SDS011;14128;48.686;9.738;2022-07-29T01:59:15;8.00;;;6.70;;
315;SDS011;14128;48.686;9.738;2022-07-29T02:01:44;7.30;;;6.90;;
315;SDS011;14128;48.686;9.738;2022-07-29T02:04:12;8.17;;;7.77;;
315;SDS011;14128;48.686;9.738;2022-07-29T02:06:40;6.77;;;6.37;;
315;SDS011;14128;48.686;9.738;2022-07-29T02:09:09;7.23;;;6.83;;
315;SDS011;14128;48.686;9.738;2022-07-29T02:11:37;7.80;;;7.40;;
315;SDS011;14128;48.686;9.738;2022-07-29T02:14:05;5.90;;;5.60;;
315;SDS011;14128;48.686;9.738;2022-07-29T02:16:33;7.30;;;6.90;;
315;SDS011;14128;48.686;9.738;2022-07-29T02:19:03;7.10;;;6.70;;
315;SDS011;14128;48.686;9.738;2022-07-29T02:21:31;8.57;;;7.77;;
315;SDS011;14128;48.686;9.738;2022-07-29T02:23:59;7.70;;;7.30;;
315;SDS011;14128;48.686;9.738;2022-07-29T02:26:27;7.07;;;6.67;;
315;SDS011;14128;48.686;9.738;2022-07-29T02:28:56;6.50;;;6.10;;
315;SDS011;14128;48.686;9.738;2022-07-29T02:31:25;6.97;;;6.07;;
315;SDS011;14128;48.686;9.738;2022-07-29T02:33:53;6.00;;;5.70;;
315;SDS011;14128;48.686;9.738;2022-07-29T02:36:22;6.13;;;5.83;;
315;SDS011;14128;48.686;9.738;2022-07-29T02:38:50;6.43;;;6.03;;
315;SDS011;14128;48.686;9.738;2022-07-29T02:41:19;7.10;;;6.70;;
315;SDS011;14128;48.686;9.738;2022-07-29T02:43:47;7.70;;;7.30;;
315;SDS011;14128;48.686;9.738;2022-07-29T02:46:16;7.40;;;7.00;;
315;SDS011;14128;48.686;9.738;2022-07-29T02:48:47;7.77;;;7.37;;
315;SDS011;14128;48.686;9.738;2022-07-29T02:51:17;8.63;;;7.80;;
315;SDS011;14128;48.686;9.738;2022-07-29T02:53:47;9.10;;;8.60;;
315;SDS011;14128;48.686;9.738;2022-07-29T02:56:16;7.53;;;7.13;;
315;SDS011;14128;48.686;9.738;2022-07-29T02:58:45;9.27;;;8.40;;
315;SDS011;14128;48.686;9.738;2022-07-29T03:01:14;9.53;;;8.60;;
315;SDS011;14128;48.686;9.738;2022-07-29T03:03:45;8.83;;;8.33;;
315;SDS011;14128;48.686;9.738;2022-07-29T03:06:13;11.37;;;8.93;;
315;SDS011;14128;48.686;9.738;2022-07-29T03:08:41;8.47;;;7.80;;
315;SDS011;14128;48.686;9.738;2022-07-29T03:11:10;9.77;;;9.27;;
315;SDS011;14128;48.686;9.738;2022-07-29T03:13:38;9.73;;;9.23;;
315;SDS011;14128;48.686;9.738;2022-07-29T03:16:06;9.37;;;8.87;;
315;SDS011;14128;48.686;9.738;2022-07-29T03:18:33;9.90;;;9.40;;
315;SDS011;14128;48.686;9.738;2022-07-29T03:21:01;9.93;;;9.43;;
315;SDS011;14128;48.686;9.738;2022-07-29T03:23:29;9.90;;;9.40;;
315;SDS011;14128;48.686;9.738;2022-07-29T03:25:56;10.30;;;9.80;;
315;SDS011;14128;48.686;9.738;2022-07-29T03:28:25;10.80;;;10.20;;
315;SDS011;14128;48.686;9.738;2022-07-29T03:30:52;11.67;;;11.00;;
315;SDS011;14128;48.686;9.738;2022-07-29T03:33:20;10.27;;;9.70;;
315;SDS011;14128;48.686;9.738;2022-07-29T03:35:47;11.53;;;10.20;;
315;SDS011;14128;48.686;9.738;2022-07-29T03:38:14;9.80;;;9.30;;
315;SDS011;14128;48.686;9.738;2022-07-29T03:40:42;9.30;;;8.80;;
315;SDS011;14128;48.686;9.738;2022-07-29T03:43:11;10.57;;;8.90;;
315;SDS011;14128;48.686;9.738;2022-07-29T03:45:41;11.03;;;10.40;;
315;SDS011;14128;48.686;9.738;2022-07-29T03:48:10;10.80;;;9.37;;
315;SDS011;14128;48.686;9.738;2022-07-29T03:50:39;9.80;;;9.30;;
315;SDS011;14128;48.686;9.738;2022-07-29T03:53:06;11.23;;;10.10;;
315;SDS011;14128;48.686;9.738;2022-07-29T03:55:36;10.57;;;10.00;;
315;SDS011;14128;48.686;9.738;2022-07-29T03:58:04;12.40;;;10.80;;
315;SDS011;14128;48.686;9.738;2022-07-29T04:00:32;10.80;;;10.20;;
315;SDS011;14128;48.686;9.738;2022-07-29T04:03:00;10.27;;;9.77;;
315;SDS011;14128;48.686;9.738;2022-07-29T04:05:28;10.73;;;9.97;;
315;SDS011;14128;48.686;9.738;2022-07-29T04:07:55;11.33;;;10.00;;
315;SDS011;14128;48.686;9.738;2022-07-29T04:10:22;10.30;;;9.83;;
315;SDS011;14128;48.686;9.738;2022-07-29T04:12:49;9.43;;;8.93;;
315;SDS011;14128;48.686;9.738;2022-07-29T04:15:17;10.83;;;10.23;;
315;SDS011;14128;48.686;9.738;2022-07-29T04:17:44;11.20;;;10.60;;
315;SDS011;14128;48.686;9.738;2022-07-29T04:20:13;12.83;;;10.50;;
315;SDS011;14128;48.686;9.738;2022-07-29T04:22:40;12.00;;;11.37;;
315;SDS011;14128;48.686;9.738;2022-07-29T04:25:08;14.10;;;11.50;;
315;SDS011;14128;48.686;9.738;2022-07-29T04:27:35;11.30;;;10.70;;
315;SDS011;14128;48.686;9.738;2022-07-29T04:30:22;11.70;;;11.10;;
315;SDS011;14128;48.686;9.738;2022-07-29T04:32:49;12.00;;;11.40;;
315;SDS011;14128;48.686;9.738;2022-07-29T04:35:18;9.93;;;9.43;;
315;SDS011;14128;48.686;9.738;2022-07-29T04:37:45;11.67;;;11.07;;
315;SDS011;14128;48.686;9.738;2022-07-29T04:40:12;10.10;;;9.60;;
315;SDS011;14128;48.686;9.738;2022-07-29T04:42:39;14.00;;;11.33;;
315;SDS011;14128;48.686;9.738;2022-07-29T04:45:07;12.47;;;11.03;;
315;SDS011;14128;48.686;9.738;2022-07-29T04:47:34;12.83;;;12.13;;
315;SDS011;14128;48.686;9.738;2022-07-29T04:50:01;16.00;;;13.67;;
315;SDS011;14128;48.686;9.738;2022-07-29T04:52:30;12.07;;;10.67;;
315;SDS011;14128;48.686;9.738;2022-07-29T04:54:57;13.37;;;11.17;;
315;SDS011;14128;48.686;9.738;2022-07-29T04:57:24;11.30;;;10.70;;
315;SDS011;14128;48.686;9.738;2022-07-29T04:59:51;16.90;;;11.10;;
315;SDS011;14128;48.686;9.738;2022-07-29T05:02:18;10.20;;;9.70;;
315;SDS011;14128;48.686;9.738;2022-07-29T05:04:46;9.27;;;8.77;;
315;SDS011;14128;48.686;9.738;2022-07-29T05:07:14;9.20;;;8.67;;
315;SDS011;14128;48.686;9.738;2022-07-29T05:09:43;11.43;;;8.90;;
315;SDS011;14128;48.686;9.738;2022-07-29T05:12:10;9.90;;;9.40;;
315;SDS011;14128;48.686;9.738;2022-07-29T05:14:37;12.70;;;10.03;;
315;SDS011;14128;48.686;9.738;2022-07-29T05:17:04;10.00;;;9.50;;
315;SDS011;14128;48.686;9.738;2022-07-29T05:19:31;10.33;;;9.83;;
315;SDS011;14128;48.686;9.738;2022-07-29T05:21:58;9.70;;;9.20;;
315;SDS011;14128;48.686;9.738;2022-07-29T05:24:26;9.50;;;9.00;;
315;SDS011;14128;48.686;9.738;2022-07-29T05:26:54;10.10;;;9.00;;
315;SDS011;14128;48.686;9.738;2022-07-29T05:29:21;9.77;;;9.27;;
315;SDS011;14128;48.686;9.738;2022-07-29T05:31:48;9.17;;;8.67;;
315;SDS011;14128;48.686;9.738;2022-07-29T05:34:17;9.30;;;8.80;;
315;SDS011;14128;48.686;9.738;2022-07-29T05:36:45;8.70;;;8.20;;
315;SDS011;14128;48.686;9.738;2022-07-29T05:39:12;9.13;;;8.63;;
315;SDS011;14128;48.686;9.738;2022-07-29T05:41:39;8.70;;;8.20;;
315;SDS011;14128;48.686;9.738;2022-07-29T05:44:07;10.77;;;8.87;;
315;SDS011;14128;48.686;9.738;2022-07-29T05:46:35;8.93;;;8.43;;
315;SDS011;14128;48.686;9.738;2022-07-29T05:49:02;8.77;;;8.17;;
315;SDS011;14128;48.686;9.738;2022-07-29T05:51:29;9.40;;;8.90;;
315;SDS011;14128;48.686;9.738;2022-07-29T05:53:56;11.60;;;8.43;;
315;SDS011;14128;48.686;9.738;2022-07-29T05:56:23;9.10;;;8.00;;
315;SDS011;14128;48.686;9.738;2022-07-29T05:58:50;10.63;;;7.03;;
315;SDS011;14128;48.686;9.738;2022-07-29T06:01:19;9.23;;;7.00;;
315;SDS011;14128;48.686;9.738;2022-07-29T06:03:46;9.00;;;6.73;;
315;SDS011;14128;48.686;9.738;2022-07-29T06:06:13;8.10;;;5.80;;
315;SDS011;14128;48.686;9.738;2022-07-29T06:08:40;8.27;;;6.20;;
315;SDS011;14128;48.686;9.738;2022-07-29T06:11:08;8.83;;;7.30;;
315;SDS011;14128;48.686;9.738;2022-07-29T06:13:35;7.03;;;6.10;;
315;SDS011;14128;48.686;9.738;2022-07-29T06:16:02;6.90;;;6.20;;
315;SDS011;14128;48.686;9.738;2022-07-29T06:18:30;6.50;;;5.60;;
315;SDS011;14128;48.686;9.738;2022-07-29T06:20:58;5.80;;;5.50;;
315;SDS011;14128;48.686;9.738;2022-07-29T06:23:25;6.10;;;5.33;;
315;SDS011;14128;48.686;9.738;2022-07-29T06:25:52;7.07;;;5.10;;
315;SDS011;14128;48.686;9.738;2022-07-29T06:28:19;4.47;;;4.17;;
315;SDS011;14128;48.686;9.738;2022-07-29T06:30:46;5.73;;;5.27;;
315;SDS011;14128;48.686;9.738;2022-07-29T06:33:16;4.60;;;3.90;;
315;SDS011;14128;48.686;9.738;2022-07-29T06:35:45;5.60;;;4.80;;
315;SDS011;14128;48.686;9.738;2022-07-29T06:38:12;7.13;;;5.13;;
315;SDS011;14128;48.686;9.738;2022-07-29T06:40:43;4.97;;;4.63;;
315;SDS011;14128;48.686;9.738;2022-07-29T06:43:30;4.77;;;4.30;;
315;SDS011;14128;48.686;9.738;2022-07-29T06:46:02;5.37;;;3.73;;
315;SDS011;14128;48.686;9.738;2022-07-29T06:48:29;4.13;;;3.90;;
315;SDS011;14128;48.686;9.738;2022-07-29T06:50:58;6.37;;;4.23;;
315;SDS011;14128;48.686;9.738;2022-07-29T06:53:25;4.83;;;4.10;;
315;SDS011;14128;48.686;9.738;2022-07-29T06:55:52;7.53;;;4.43;;
315;SDS011;14128;48.686;9.738;2022-07-29T06:58:19;4.50;;;4.13;;
315;SDS011;14128;48.686;9.738;2022-07-29T07:00:47;3.40;;;3.20;;
315;SDS011;14128;48.686;9.738;2022-07-29T07:03:14;4.83;;;3.00;;
315;SDS011;14128;48.686;9.738;2022-07-29T07:05:41;3.37;;;3.20;;
315;SDS011;14128;48.686;9.738;2022-07-29T07:08:10;6.00;;;3.07;;
315;SDS011;14128;48.686;9.738;2022-07-29T07:10:37;3.70;;;3.50;;
315;SDS011;14128;48.686;9.738;2022-07-29T07:13:05;5.57;;;3.13;;
315;SDS011;14128;48.686;9.738;2022-07-29T07:15:32;6.70;;;3.10;;
315;SDS011;14128;48.686;9.738;2022-07-29T07:17:59;4.83;;;3.70;;
315;SDS011;14128;48.686;9.738;2022-07-29T07:20:26;4.40;;;2.57;;
315;SDS011;14128;48.686;9.738;2022-07-29T07:22:53;5.53;;;2.87;;
315;SDS011;14128;48.686;9.738;2022-07-29T07:25:22;3.27;;;2.73;;
315;SDS011;14128;48.686;9.738;2022-07-29T07:27:49;2.80;;;2.67;;
315;SDS011;14128;48.686;9.738;2022-07-29T07:30:16;3.10;;;2.60;;
315;SDS011;14128;48.686;9.738;2022-07-29T07:32:44;6.60;;;3.57;;
315;SDS011;14128;48.686;9.738;2022-07-29T07:35:11;4.00;;;3.03;;
315;SDS011;14128;48.686;9.738;2022-07-29T07:37:38;5.43;;;2.73;;
315;SDS011;14128;48.686;9.738;2022-07-29T07:40:07;4.80;;;2.10;;
315;SDS011;14128;48.686;9.738;2022-07-29T07:42:36;3.30;;;2.37;;
315;SDS011;14128;48.686;9.738;2022-07-29T07:45:04;7.80;;;3.33;;
315;SDS011;14128;48.686;9.738;2022-07-29T07:47:32;3.33;;;2.97;;
315;SDS011;14128;48.686;9.738;2022-07-29T07:49:59;6.93;;;2.40;;
315;SDS011;14128;48.686;9.738;2022-07-29T07:52:26;4.47;;;2.40;;
315;SDS011;14128;48.686;9.738;2022-07-29T07:54:53;2.90;;;2.47;;
315;SDS011;14128;48.686;9.738;2022-07-29T07:57:20;2.80;;;2.60;;
315;SDS011;14128;48.686;9.738;2022-07-29T07:59:49;3.63;;;3.03;;
315;SDS011;14128;48.686;9.738;2022-07-29T08:02:16;4.20;;;3.03;;
315;SDS011;14128;48.686;9.738;2022-07-29T08:04:43;3.40;;;3.20;;
315;SDS011;14128;48.686;9.738;2022-07-29T08:07:10;3.73;;;3.00;;
315;SDS011;14128;48.686;9.738;2022-07-29T08:09:39;3.20;;;3.03;;
315;SDS011;14128;48.686;9.738;2022-07-29T08:12:06;3.13;;;2.97;;
315;SDS011;14128;48.686;9.738;2022-07-29T08:14:33;4.83;;;2.97;;
315;SDS011;14128;48.686;9.738;2022-07-29T08:17:02;3.43;;;2.23;;
315;SDS011;14128;48.686;9.738;2022-07-29T08:19:29;4.83;;;2.53;;
315;SDS011;14128;48.686;9.738;2022-07-29T08:21:56;2.80;;;2.43;;
315;SDS011;14128;48.686;9.738;2022-07-29T08:24:23;3.50;;;2.40;;
315;SDS011;14128;48.686;9.738;2022-07-29T08:27:11;4.60;;;2.93;;
315;SDS011;14128;48.686;9.738;2022-07-29T08:29:38;2.80;;;2.60;;
315;SDS011;14128;48.686;9.738;2022-07-29T08:32:07;3.73;;;3.53;;
315;SDS011;14128;48.686;9.738;2022-07-29T08:34:34;2.80;;;2.60;;
315;SDS011;14128;48.686;9.738;2022-07-29T08:37:01;6.13;;;2.67;;
315;SDS011;14128;48.686;9.738;2022-07-29T08:39:28;4.30;;;2.90;;
315;SDS011;14128;48.686;9.738;2022-07-29T08:41:56;3.20;;;2.90;;
315;SDS011;14128;48.686;9.738;2022-07-29T08:44:23;2.70;;;2.53;;
315;SDS011;14128;48.686;9.738;2022-07-29T08:46:51;2.97;;;2.77;;
315;SDS011;14128;48.686;9.738;2022-07-29T08:49:20;4.50;;;3.00;;
315;SDS011;14128;48.686;9.738;2022-07-29T08:51:47;4.10;;;2.57;;
315;SDS011;14128;48.686;9.738;2022-07-29T08:54:16;7.17;;;3.30;;
315;SDS011;14128;48.686;9.738;2022-07-29T08:56:44;4.20;;;3.77;;
315;SDS011;14128;48.686;9.738;2022-07-29T08:59:11;3.20;;;3.00;;
315;SDS011;14128;48.686;9.738;2022-07-29T09:01:41;4.40;;;4.10;;
315;SDS011;14128;48.686;9.738;2022-07-29T09:04:10;5.90;;;4.13;;
315;SDS011;14128;48.686;9.738;2022-07-29T09:06:42;3.93;;;3.40;;
315;SDS011;14128;48.686;9.738;2022-07-29T09:09:09;4.27;;;3.60;;
315;SDS011;14128;48.686;9.738;2022-07-29T09:11:38;5.20;;;3.70;;
315;SDS011;14128;48.686;9.738;2022-07-29T09:14:05;5.67;;;4.20;;
315;SDS011;14128;48.686;9.738;2022-07-29T09:19:19;4.77;;;4.20;;
315;SDS011;14128;48.686;9.738;2022-07-29T09:21:48;4.73;;;3.80;;
315;SDS011;14128;48.686;9.738;2022-07-29T09:24:24;6.27;;;4.50;;
315;SDS011;14128;48.686;9.738;2022-07-29T09:26:51;5.30;;;4.60;;
315;SDS011;14128;48.686;9.738;2022-07-29T09:29:19;4.80;;;4.10;;
315;SDS011;14128;48.686;9.738;2022-07-29T09:31:47;5.20;;;4.20;;
315;SDS011;14128;48.686;9.738;2022-07-29T09:34:15;6.30;;;4.10;;
315;SDS011;14128;48.686;9.738;2022-07-29T09:36:43;3.93;;;3.70;;
315;SDS011;14128;48.686;9.738;2022-07-29T09:39:12;7.03;;;5.30;;
315;SDS011;14128;48.686;9.738;2022-07-29T09:41:44;4.80;;;4.50;;
315;SDS011;14128;48.686;9.738;2022-07-29T09:44:11;5.63;;;5.10;;
315;SDS011;14128;48.686;9.738;2022-07-29T09:46:40;4.87;;;4.57;;
315;SDS011;14128;48.686;9.738;2022-07-29T09:49:08;5.30;;;5.00;;
315;SDS011;14128;48.686;9.738;2022-07-29T09:51:36;5.30;;;5.00;;
315;SDS011;14128;48.686;9.738;2022-07-29T09:54:04;8.40;;;4.87;;
315;SDS011;14128;48.686;9.738;2022-07-29T09:56:49;5.00;;;4.27;;
315;SDS011;14128;48.686;9.738;2022-07-29T09:59:16;7.13;;;4.50;;
315;SDS011;14128;48.686;9.738;2022-07-29T10:01:45;5.80;;;5.00;;
315;SDS011;14128;48.686;9.738;2022-07-29T10:04:12;4.87;;;4.53;;
315;SDS011;14128;48.686;9.738;2022-07-29T10:06:54;5.20;;;4.90;;
315;SDS011;14128;48.686;9.738;2022-07-29T10:09:22;9.10;;;5.03;;
315;SDS011;14128;48.686;9.738;2022-07-29T10:12:03;5.20;;;4.90;;
315;SDS011;14128;48.686;9.738;2022-07-29T10:14:31;7.80;;;5.07;;
315;SDS011;14128;48.686;9.738;2022-07-29T10:16:59;4.53;;;3.97;;
315;SDS011;14128;48.686;9.738;2022-07-29T10:19:27;4.83;;;4.33;;
315;SDS011;14128;48.686;9.738;2022-07-29T10:21:55;4.17;;;3.93;;
315;SDS011;14128;48.686;9.738;2022-07-29T10:24:23;4.60;;;4.30;;
315;SDS011;14128;48.686;9.738;2022-07-29T10:26:51;5.63;;;4.27;;
315;SDS011;14128;48.686;9.738;2022-07-29T10:29:20;5.47;;;5.20;;
315;SDS011;14128;48.686;9.738;2022-07-29T10:31:49;4.80;;;4.40;;
315;SDS011;14128;48.686;9.738;2022-07-29T10:34:19;4.97;;;4.63;;
315;SDS011;14128;48.686;9.738;2022-07-29T10:36:52;4.40;;;4.10;;
315;SDS011;14128;48.686;9.738;2022-07-29T10:39:25;4.47;;;3.77;;
315;SDS011;14128;48.686;9.738;2022-07-29T10:41:56;6.63;;;5.00;;
315;SDS011;14128;48.686;9.738;2022-07-29T10:44:27;4.93;;;3.87;;
315;SDS011;14128;48.686;9.738;2022-07-29T10:46:54;5.73;;;4.50;;
315;SDS011;14128;48.686;9.738;2022-07-29T10:49:22;4.97;;;4.67;;
315;SDS011;14128;48.686;9.738;2022-07-29T10:51:52;5.77;;;4.50;;
315;SDS011;14128;48.686;9.738;2022-07-29T10:54:35;5.57;;;4.50;;
315;SDS011;14128;48.686;9.738;2022-07-29T10:57:10;10.97;;;4.90;;
315;SDS011;14128;48.686;9.738;2022-07-29T10:59:39;5.27;;;4.77;;
315;SDS011;14128;48.686;9.738;2022-07-29T11:05:01;3.90;;;3.70;;
315;SDS011;14128;48.686;9.738;2022-07-29T11:07:29;4.67;;;4.37;;
315;SDS011;14128;48.686;9.738;2022-07-29T11:12:50;4.97;;;4.47;;
315;SDS011;14128;48.686;9.738;2022-07-29T11:15:20;4.07;;;3.90;;
315;SDS011;14128;48.686;9.738;2022-07-29T11:18:03;4.90;;;4.00;;
315;SDS011;14128;48.686;9.738;2022-07-29T11:20:31;5.87;;;4.13;;
315;SDS011;14128;48.686;9.738;2022-07-29T11:22:58;6.53;;;4.53;;
315;SDS011;14128;48.686;9.738;2022-07-29T11:25:26;4.90;;;4.37;;
315;SDS011;14128;48.686;9.738;2022-07-29T11:27:54;5.10;;;4.80;;
315;SDS011;14128;48.686;9.738;2022-07-29T11:30:22;6.67;;;4.17;;
315;SDS011;14128;48.686;9.738;2022-07-29T11:36:06;5.33;;;4.20;;
315;SDS011;14128;48.686;9.738;2022-07-29T11:38:33;4.83;;;4.40;;
315;SDS011;14128;48.686;9.738;2022-07-29T11:41:19;10.17;;;4.90;;
315;SDS011;14128;48.686;9.738;2022-07-29T11:43:46;3.90;;;3.70;;
315;SDS011;14128;48.686;9.738;2022-07-29T11:46:15;6.80;;;4.87;;
315;SDS011;14128;48.686;9.738;2022-07-29T11:48:43;5.10;;;4.63;;
315;SDS011;14128;48.686;9.738;2022-07-29T11:51:11;4.00;;;3.80;;
315;SDS011;14128;48.686;9.738;2022-07-29T11:53:38;4.30;;;4.03;;
315;SDS011;14128;48.686;9.738;2022-07-29T11:56:08;4.80;;;4.50;;
315;SDS011;14128;48.686;9.738;2022-07-29T11:58:35;7.37;;;4.80;;
315;SDS011;14128;48.686;9.738;2022-07-29T12:01:03;6.83;;;4.47;;
315;SDS011;14128;48.686;9.738;2022-07-29T12:03:32;9.80;;;4.83;;
315;SDS011;14128;48.686;9.738;2022-07-29T12:05:59;6.17;;;5.07;;
315;SDS011;14128;48.686;9.738;2022-07-29T12:08:27;5.17;;;4.53;;
315;SDS011;14128;48.686;9.738;2022-07-29T12:10:54;5.00;;;4.50;;
315;SDS011;14128;48.686;9.738;2022-07-29T12:13:21;5.63;;;5.00;;
315;SDS011;14128;48.686;9.738;2022-07-29T12:15:52;4.33;;;4.03;;
315;SDS011;14128;48.686;9.738;2022-07-29T12:18:20;6.03;;;4.50;;
315;SDS011;14128;48.686;9.738;2022-07-29T12:20:48;4.93;;;3.70;;
315;SDS011;14128;48.686;9.738;2022-07-29T12:23:15;4.60;;;4.30;;
315;SDS011;14128;48.686;9.738;2022-07-29T12:25:43;7.17;;;4.10;;
315;SDS011;14128;48.686;9.738;2022-07-29T12:28:11;4.77;;;4.33;;
315;SDS011;14128;48.686;9.738;2022-07-29T12:30:39;4.40;;;4.10;;
315;SDS011;14128;48.686;9.738;2022-07-29T12:33:14;5.03;;;4.73;;
315;SDS011;14128;48.686;9.738;2022-07-29T12:35:42;5.10;;;4.80;;
315;SDS011;14128;48.686;9.738;2022-07-29T12:38:11;8.03;;;4.70;;
315;SDS011;14128;48.686;9.738;2022-07-29T12:40:39;6.23;;;4.40;;
315;SDS011;14128;48.686;9.738;2022-07-29T12:43:10;4.50;;;4.20;;
315;SDS011;14128;48.686;9.738;2022-07-29T12:45:38;6.00;;;5.40;;
315;SDS011;14128;48.686;9.738;2022-07-29T12:48:05;6.43;;;5.47;;
315;SDS011;14128;48.686;9.738;2022-07-29T12:50:33;5.83;;;5.53;;
315;SDS011;14128;48.686;9.738;2022-07-29T12:53:12;5.50;;;5.10;;
315;SDS011;14128;48.686;9.738;2022-07-29T12:55:42;6.07;;;5.03;;
315;SDS011;14128;48.686;9.738;2022-07-29T12:58:13;5.80;;;5.50;;
315;SDS011;14128;48.686;9.738;2022-07-29T13:00:41;6.00;;;5.70;;
315;SDS011;14128;48.686;9.738;2022-07-29T13:03:08;5.47;;;5.00;;
315;SDS011;14128;48.686;9.738;2022-07-29T13:05:39;6.53;;;4.90;;
315;SDS011;14128;48.686;9.738;2022-07-29T13:08:12;9.10;;;5.03;;
315;SDS011;14128;48.686;9.738;2022-07-29T13:10:39;4.90;;;4.60;;
315;SDS011;14128;48.686;9.738;2022-07-29T13:13:07;5.83;;;3.67;;
315;SDS011;14128;48.686;9.738;2022-07-29T13:15:35;2.97;;;2.63;;
315;SDS011;14128;48.686;9.738;2022-07-29T13:18:02;3.97;;;3.77;;
315;SDS011;14128;48.686;9.738;2022-07-29T13:20:30;3.90;;;3.30;;
315;SDS011;14128;48.686;9.738;2022-07-29T13:22:57;6.13;;;3.77;;
315;SDS011;14128;48.686;9.738;2022-07-29T13:25:27;3.80;;;3.60;;
315;SDS011;14128;48.686;9.738;2022-07-29T13:27:55;3.17;;;2.50;;
315;SDS011;14128;48.686;9.738;2022-07-29T13:30:23;4.67;;;3.17;;
315;SDS011;14128;48.686;9.738;2022-07-29T13:32:51;2.33;;;2.13;;
315;SDS011;14128;48.686;9.738;2022-07-29T13:35:18;1.80;;;1.70;;
315;SDS011;14128;48.686;9.738;2022-07-29T13:37:46;3.90;;;2.30;;
315;SDS011;14128;48.686;9.738;2022-07-29T13:40:13;1.80;;;1.70;;
315;SDS011;14128;48.686;9.738;2022-07-29T13:42:42;2.07;;;1.93;;
315;SDS011;14128;48.686;9.738;2022-07-29T13:45:09;2.10;;;2.00;;
315;SDS011;14128;48.686;9.738;2022-07-29T13:47:37;3.57;;;2.13;;
315;SDS011;14128;48.686;9.738;2022-07-29T13:50:05;3.33;;;2.27;;
315;SDS011;14128;48.686;9.738;2022-07-29T13:52:32;3.33;;;2.30;;
315;SDS011;14128;48.686;9.738;2022-07-29T13:54:59;3.00;;;2.53;;
315;SDS011;14128;48.686;9.738;2022-07-29T13:57:26;2.67;;;2.43;;
315;SDS011;14128;48.686;9.738;2022-07-29T13:59:55;2.70;;;2.50;;
315;SDS011;14128;48.686;9.738;2022-07-29T14:02:22;3.73;;;2.63;;
315;SDS011;14128;48.686;9.738;2022-07-29T14:04:49;2.20;;;2.07;;
315;SDS011;14128;48.686;9.738;2022-07-29T14:07:17;2.67;;;2.17;;
315;SDS011;14128;48.686;9.738;2022-07-29T14:09:44;2.80;;;2.63;;
315;SDS011;14128;48.686;9.738;2022-07-29T14:12:11;5.53;;;3.03;;
315;SDS011;14128;48.686;9.738;2022-07-29T14:14:38;2.37;;;2.00;;
315;SDS011;14128;48.686;9.738;2022-07-29T14:17:07;2.57;;;2.33;;
315;SDS011;14128;48.686;9.738;2022-07-29T14:19:35;3.07;;;2.87;;
315;SDS011;14128;48.686;9.738;2022-07-29T14:22:03;3.33;;;2.70;;
315;SDS011;14128;48.686;9.738;2022-07-29T14:24:30;2.97;;;2.77;;
315;SDS011;14128;48.686;9.738;2022-07-29T14:26:58;3.73;;;2.90;;
315;SDS011;14128;48.686;9.738;2022-07-29T14:29:25;4.77;;;2.40;;
315;SDS011;14128;48.686;9.738;2022-07-29T14:31:52;2.87;;;2.70;;
315;SDS011;14128;48.686;9.738;2022-07-29T14:34:21;2.70;;;2.50;;
315;SDS011;14128;48.686;9.738;2022-07-29T14:36:48;2.60;;;2.43;;
315;SDS011;14128;48.686;9.738;2022-07-29T14:39:15;2.67;;;2.47;;
315;SDS011;14128;48.686;9.738;2022-07-29T14:41:42;2.73;;;2.60;;
315;SDS011;14128;48.686;9.738;2022-07-29T14:44:09;2.50;;;2.23;;
315;SDS011;14128;48.686;9.738;2022-07-29T14:46:37;3.03;;;2.80;;
315;SDS011;14128;48.686;9.738;2022-07-29T14:49:04;3.27;;;3.07;;
315;SDS011;14128;48.686;9.738;2022-07-29T14:51:32;3.10;;;2.70;;
315;SDS011;14128;48.686;9.738;2022-07-29T14:54:00;3.73;;;2.80;;
315;SDS011;14128;48.686;9.738;2022-07-29T14:56:27;4.20;;;3.57;;
315;SDS011;14128;48.686;9.738;2022-07-29T14:58:55;4.10;;;3.00;;
315;SDS011;14128;48.686;9.738;2022-07-29T15:01:22;4.93;;;3.33;;
315;SDS011;14128;48.686;9.738;2022-07-29T15:03:49;3.50;;;3.30;;
315;SDS011;14128;48.686;9.738;2022-07-29T15:06:16;3.20;;;3.00;;
315;SDS011;14128;48.686;9.738;2022-07-29T15:08:45;4.03;;;3.70;;
315;SDS011;14128;48.686;9.738;2022-07-29T15:11:12;3.50;;;3.30;;
315;SDS011;14128;48.686;9.738;2022-07-29T15:13:39;5.70;;;3.47;;
315;SDS011;14128;48.686;9.738;2022-07-29T15:16:07;2.77;;;2.57;;
315;SDS011;14128;48.686;9.738;2022-07-29T15:18:34;4.53;;;2.73;;
315;SDS011;14128;48.686;9.738;2022-07-29T15:21:03;3.47;;;3.00;;
315;SDS011;14128;48.686;9.738;2022-07-29T15:23:31;3.17;;;2.90;;
315;SDS011;14128;48.686;9.738;2022-07-29T15:26:01;4.23;;;3.17;;
315;SDS011;14128;48.686;9.738;2022-07-29T15:28:29;4.20;;;3.40;;
315;SDS011;14128;48.686;9.738;2022-07-29T15:30:56;3.10;;;2.90;;
315;SDS011;14128;48.686;9.738;2022-07-29T15:33:23;3.13;;;2.93;;
315;SDS011;14128;48.686;9.738;2022-07-29T15:35:51;4.77;;;3.40;;